Moses Lake, WA

8:55 PM PDT on August 23, 2016 (GMT -0700)
Civic Center | | Change Station

Elev 1050 ft 47.13 °N, 119.27 °W | Updated 14 seconds ago

Partly Cloudy
Partly Cloudy
74.0 °F
Feels Like 77 °F
N
6.0
Wind Variable Wind from West
Gusts 7.0 mph

Today
High -- | Low -- °F
--% Chance of Precip.
Yesterday
High -- | Low -- °F
Precip. -- in
Pressure 30.09 in
Visibility 10.0 miles
Clouds Few 12000 ft
Heat Index 77 °F
Dew Point 54 °F
Humidity 50%
Rainfall 0.00 in
Snow Depth Not available.
6:05 AM 7:52 PM
Waning Gibbous, 61% visible
METAR KMWH 240352Z 26007KT 10SM FEW120 23/06 A3011 RMK AO2 SLP189 T02330056
Pressure 30.09 in
Visibility 10.0 miles
Clouds Few 12000 ft
Heat Index 77 °F
Dew Point 54 °F
Humidity 50%
Rainfall 0.00 in
Snow Depth Not available.
6:05 AM 7:52 PM
Waning Gibbous, 61% visible
METAR KMWH 240352Z 26007KT 10SM FEW120 23/06 A3011 RMK AO2 SLP189 T02330056

10-Day Weather Forecast

Almanac

Astronomy

Aug. 23, 2016 Rise Set
Actual Time
Civil Twilight
Nautical Twilight
Astronomical Twilight
Moon
Length of Visible Light
Length of Day
Tomorrow will be .
, % of the Moon is Illuminated

Today's Extremes

State Highs State Lows

Community

WunderPhotos

Upload Photos

1,934,539 photos uploaded!

WunderBlog® & News

Nearby

Air Quality

  Air Quality AQ Index Pollutant
Not available.

Snow Depth

Station Depth Elevation

Earthquake Activity

City Distance Mag. Time & Date
Minimum magnitude displayed is 2.5.

Coastal Water Temperatures

Place Temperature

Stations

Nearby Weather Stations

Station Location Temp. Windchill Dew Point Humidity Wind Precip. Elev Updated Type
                   

Watches & Warnings

There are currently no watches in effect.